createdAt,value
2023-05-17T00:00:43.872Z,14.94
2023-05-17T00:03:19.672Z,14.93
2023-05-17T00:05:48.461Z,14.90
2023-05-17T00:08:17.528Z,14.92
2023-05-17T00:10:46.825Z,14.91
2023-05-17T00:13:15.721Z,14.88
2023-05-17T00:15:44.794Z,14.85
2023-05-17T00:18:13.836Z,14.85
2023-05-17T00:20:42.904Z,14.81
2023-05-17T00:23:12.254Z,14.77
2023-05-17T00:25:41.379Z,14.74
2023-05-17T00:28:10.225Z,14.71
2023-05-17T00:30:39.131Z,14.70
2023-05-17T00:33:08.220Z,14.69
2023-05-17T00:35:37.399Z,14.67
2023-05-17T00:38:06.933Z,14.66
2023-05-17T00:40:36.107Z,14.68
2023-05-17T00:43:05.154Z,14.69
2023-05-17T00:45:34.396Z,14.73
2023-05-17T00:48:03.650Z,14.74
2023-05-17T00:50:33.062Z,14.76
2023-05-17T00:53:02.270Z,14.78
2023-05-17T00:55:32.017Z,14.78
2023-05-17T00:58:01.294Z,14.77
2023-05-17T01:00:30.340Z,14.78
2023-05-17T01:03:00.826Z,14.75
2023-05-17T01:05:30.803Z,14.76
2023-05-17T01:08:00.181Z,14.76
2023-05-17T01:10:36.354Z,14.77
2023-05-17T01:13:13.113Z,14.76
2023-05-17T01:15:48.005Z,14.76
2023-05-17T01:18:23.759Z,14.76
2023-05-17T01:20:55.768Z,14.76
2023-05-17T01:23:45.119Z,14.76
2023-05-17T01:26:18.866Z,14.77
2023-05-17T01:28:53.020Z,14.79
2023-05-17T01:31:23.472Z,14.80
2023-05-17T01:33:52.728Z,14.79
2023-05-17T01:36:21.818Z,14.78
2023-05-17T01:38:50.917Z,14.78
2023-05-17T01:41:26.715Z,14.76
2023-05-17T01:43:57.190Z,14.77
2023-05-17T01:46:31.919Z,14.72
2023-05-17T01:49:09.432Z,14.75
2023-05-17T01:51:48.033Z,14.75
2023-05-17T01:54:23.199Z,14.70
2023-05-17T01:56:58.494Z,14.64
2023-05-17T01:59:29.684Z,14.62
2023-05-17T02:02:05.634Z,14.60
2023-05-17T02:04:35.373Z,14.60
2023-05-17T02:07:05.005Z,14.61
2023-05-17T02:09:33.906Z,14.60
2023-05-17T02:12:03.331Z,14.58
2023-05-17T02:14:32.628Z,14.57
2023-05-17T02:17:01.923Z,14.55
2023-05-17T02:19:30.903Z,14.54
2023-05-17T02:22:00.012Z,14.55
2023-05-17T02:24:29.122Z,14.56
2023-05-17T02:26:58.131Z,14.56
2023-05-17T02:29:27.340Z,14.56
2023-05-17T02:31:56.963Z,14.57
2023-05-17T02:34:26.053Z,14.58
2023-05-17T02:36:55.125Z,14.59
2023-05-17T02:39:24.118Z,14.58
2023-05-17T02:41:53.167Z,14.57
2023-05-17T02:44:22.076Z,14.56
2023-05-17T02:46:51.334Z,14.54
2023-05-17T02:49:20.349Z,14.54
2023-05-17T02:51:49.220Z,14.54
2023-05-17T02:54:18.295Z,14.55
2023-05-17T02:56:47.440Z,14.58
2023-05-17T02:59:16.423Z,14.60
2023-05-17T03:01:45.337Z,14.65
2023-05-17T03:04:14.449Z,14.68
2023-05-17T03:06:43.543Z,14.72
2023-05-17T03:09:12.712Z,14.75
2023-05-17T03:11:41.803Z,14.78
2023-05-17T03:14:10.861Z,14.79
2023-05-17T03:16:40.068Z,14.80
2023-05-17T03:19:09.704Z,14.82
2023-05-17T03:21:39.122Z,14.82
2023-05-17T03:24:08.940Z,14.82
2023-05-17T03:26:37.967Z,14.81
2023-05-17T03:29:07.342Z,14.80
2023-05-17T03:31:36.696Z,14.77
2023-05-17T03:34:05.998Z,14.75
2023-05-17T03:36:35.528Z,14.76
2023-05-17T03:39:04.794Z,14.80
2023-05-17T03:41:34.070Z,14.83
2023-05-17T03:44:03.130Z,14.85
2023-05-17T03:46:32.094Z,14.88
2023-05-17T03:49:01.226Z,14.91
2023-05-17T03:51:30.777Z,14.95
2023-05-17T03:54:01.114Z,14.96
2023-05-17T03:56:31.973Z,14.97
2023-05-17T03:59:01.107Z,14.97
2023-05-17T04:01:30.230Z,14.98
2023-05-17T04:04:00.806Z,14.98
2023-05-17T04:06:30.090Z,14.98
2023-05-17T04:08:59.494Z,14.94
2023-05-17T04:11:28.805Z,14.93
2023-05-17T04:13:57.843Z,14.92
2023-05-17T04:16:26.958Z,14.90
2023-05-17T04:18:56.120Z,14.87
2023-05-17T04:21:25.518Z,14.86
2023-05-17T04:23:54.521Z,14.89
2023-05-17T04:26:23.617Z,14.91
2023-05-17T04:28:53.128Z,14.93
2023-05-17T04:31:22.241Z,14.94
2023-05-17T04:33:51.492Z,14.95
2023-05-17T04:36:20.714Z,14.95
2023-05-17T04:38:49.894Z,14.97
2023-05-17T04:41:19.007Z,15.00
2023-05-17T04:43:48.063Z,15.02
2023-05-17T04:46:16.979Z,15.05
2023-05-17T04:48:46.725Z,15.09
2023-05-17T04:51:15.962Z,15.13
2023-05-17T04:53:45.207Z,15.14
2023-05-17T04:56:14.219Z,15.18
2023-05-17T04:58:43.169Z,15.24
2023-05-17T05:01:12.418Z,15.28
2023-05-17T05:03:41.588Z,15.31
2023-05-17T05:06:11.541Z,15.32
2023-05-17T05:08:41.308Z,15.32
2023-05-17T05:11:10.348Z,15.32
2023-05-17T05:13:41.193Z,15.33
2023-05-17T05:16:10.333Z,15.31
2023-05-17T05:18:39.487Z,15.26
2023-05-17T05:21:08.837Z,15.25
2023-05-17T05:23:37.824Z,15.23
2023-05-17T05:26:07.079Z,15.19
2023-05-17T05:28:36.915Z,15.15
2023-05-17T05:31:06.292Z,15.11
2023-05-17T05:33:35.859Z,15.08
2023-05-17T05:36:05.992Z,15.04
2023-05-17T05:38:35.902Z,15.01
2023-05-17T05:41:05.149Z,15.01
2023-05-17T05:43:36.806Z,15.03
2023-05-17T05:46:07.534Z,15.06
2023-05-17T05:48:38.850Z,15.06
2023-05-17T05:51:08.433Z,15.07
2023-05-17T05:53:38.077Z,15.08
2023-05-17T05:56:11.540Z,15.06
2023-05-17T05:58:40.614Z,15.05
2023-05-17T06:01:09.586Z,15.06
2023-05-17T06:03:38.632Z,15.05
2023-05-17T06:06:08.364Z,15.02
2023-05-17T06:08:37.508Z,15.06
2023-05-17T06:11:06.834Z,15.09
2023-05-17T06:13:35.892Z,15.11
2023-05-17T06:16:05.636Z,15.14
2023-05-17T06:18:34.648Z,15.18
2023-05-17T06:21:03.972Z,15.21
2023-05-17T06:23:32.923Z,15.26
2023-05-17T06:26:02.109Z,15.31
2023-05-17T06:28:31.219Z,15.33
2023-05-17T06:31:00.345Z,15.33
2023-05-17T06:33:29.648Z,15.31
2023-05-17T06:35:59.200Z,15.32
2023-05-17T06:38:28.266Z,15.37
2023-05-17T06:40:58.059Z,15.42
2023-05-17T06:43:27.187Z,15.45
2023-05-17T06:45:58.605Z,15.48
2023-05-17T06:48:27.746Z,15.51
2023-05-17T06:50:57.183Z,15.54
2023-05-17T06:53:26.730Z,15.61
2023-05-17T06:55:56.033Z,15.66
2023-05-17T06:58:25.203Z,15.67
2023-05-17T07:00:54.454Z,15.70
2023-05-17T07:03:23.482Z,15.72
2023-05-17T07:05:52.588Z,15.74
2023-05-17T07:08:21.704Z,15.78
2023-05-17T07:10:52.791Z,15.79
2023-05-17T07:13:21.848Z,15.80
2023-05-17T07:15:51.031Z,15.78
2023-05-17T07:18:20.413Z,15.79
2023-05-17T07:20:49.386Z,15.85
2023-05-17T07:23:18.597Z,15.87
2023-05-17T07:25:47.560Z,15.87
2023-05-17T07:28:16.469Z,15.87
2023-05-17T07:30:45.494Z,15.86
2023-05-17T07:33:14.435Z,15.81
2023-05-17T07:35:43.567Z,15.78
2023-05-17T07:38:12.666Z,15.76
2023-05-17T07:40:41.698Z,15.72
2023-05-17T07:43:10.790Z,15.77
2023-05-17T07:45:39.872Z,15.88
2023-05-17T07:48:08.877Z,15.89
2023-05-17T07:50:37.921Z,15.90
2023-05-17T07:53:06.966Z,15.92
2023-05-17T07:55:35.856Z,15.97
2023-05-17T07:58:05.127Z,16.07
2023-05-17T08:00:34.645Z,16.18
2023-05-17T08:03:03.951Z,16.25
2023-05-17T08:05:33.162Z,16.27
2023-05-17T08:08:02.316Z,16.31
2023-05-17T08:10:31.491Z,16.34
2023-05-17T08:13:00.445Z,16.39
2023-05-17T08:15:31.151Z,16.42
2023-05-17T08:18:02.932Z,16.42
2023-05-17T08:20:33.729Z,16.45
2023-05-17T08:23:02.814Z,16.47
2023-05-17T08:25:32.206Z,16.45
2023-05-17T08:28:01.119Z,16.43
2023-05-17T08:30:30.099Z,16.41
2023-05-17T08:32:59.891Z,16.38
2023-05-17T08:35:29.285Z,16.36
2023-05-17T08:37:58.469Z,16.34
2023-05-17T08:40:28.824Z,16.30
2023-05-17T08:42:58.567Z,16.26
2023-05-17T08:45:28.789Z,16.25
2023-05-17T08:47:58.800Z,16.22
2023-05-17T08:50:30.424Z,16.18
2023-05-17T08:53:00.471Z,16.15
2023-05-17T08:55:32.560Z,16.11
2023-05-17T08:58:02.095Z,16.10
2023-05-17T09:00:32.972Z,16.07
2023-05-17T09:03:02.304Z,16.03
2023-05-17T09:05:31.832Z,15.99
2023-05-17T09:08:01.883Z,15.96
2023-05-17T09:10:31.140Z,15.92
2023-05-17T09:13:00.542Z,15.91
2023-05-17T09:15:33.663Z,15.91
2023-05-17T09:18:03.004Z,15.90
2023-05-17T09:20:34.584Z,15.92
2023-05-17T09:23:05.352Z,15.96
2023-05-17T09:25:34.492Z,15.98
2023-05-17T09:28:05.464Z,15.99
2023-05-17T09:30:37.601Z,15.99
2023-05-17T09:33:08.199Z,15.99
2023-05-17T09:35:38.889Z,16.01
2023-05-17T09:38:10.624Z,16.03
2023-05-17T09:40:41.424Z,16.05
2023-05-17T09:43:11.841Z,16.06
2023-05-17T09:45:40.755Z,16.03
2023-05-17T09:48:14.698Z,16.05
2023-05-17T09:50:47.949Z,16.06
2023-05-17T09:53:28.001Z,16.09
2023-05-17T09:55:59.303Z,16.11
2023-05-17T09:58:31.726Z,16.13
2023-05-17T10:01:03.188Z,16.14
2023-05-17T10:03:34.941Z,16.16
2023-05-17T10:06:08.778Z,16.19
2023-05-17T10:08:44.102Z,16.23
2023-05-17T10:11:13.246Z,16.26
2023-05-17T10:13:48.253Z,16.29
2023-05-17T10:16:18.533Z,16.34
2023-05-17T10:18:49.452Z,16.38
2023-05-17T10:21:19.750Z,16.43
2023-05-17T10:23:49.421Z,16.47
2023-05-17T10:26:18.872Z,16.56
2023-05-17T10:28:51.542Z,16.66
2023-05-17T10:31:21.353Z,16.77
2023-05-17T10:33:52.042Z,16.84
2023-05-17T10:36:23.692Z,16.89
2023-05-17T10:38:53.416Z,16.96
2023-05-17T10:41:25.295Z,17.03
2023-05-17T10:43:56.265Z,17.11
2023-05-17T10:46:25.420Z,17.19
2023-05-17T10:48:57.370Z,17.26
2023-05-17T10:51:31.795Z,17.34
2023-05-17T10:54:11.713Z,17.42
2023-05-17T10:56:47.169Z,17.48
2023-05-17T10:59:17.938Z,17.55
2023-05-17T11:01:54.844Z,17.59
2023-05-17T11:04:25.532Z,17.67
2023-05-17T11:07:16.591Z,17.73
2023-05-17T11:09:47.113Z,17.80
2023-05-17T11:12:16.903Z,17.87
2023-05-17T11:14:53.600Z,17.92
2023-05-17T11:17:25.430Z,17.95
2023-05-17T11:20:13.389Z,17.97
2023-05-17T11:22:58.853Z,17.99
2023-05-17T11:25:30.862Z,18.01
2023-05-17T11:28:00.345Z,18.05
2023-05-17T11:30:31.153Z,18.10
2023-05-17T11:33:02.135Z,18.14
2023-05-17T11:35:35.304Z,18.21
2023-05-17T11:38:19.380Z,18.28
2023-05-17T11:40:50.281Z,18.37
2023-05-17T11:43:22.740Z,18.45
2023-05-17T11:45:53.904Z,18.54
2023-05-17T11:48:25.497Z,18.63
2023-05-17T11:50:56.473Z,18.68
2023-05-17T11:53:26.736Z,18.67
2023-05-17T11:55:56.500Z,18.58
2023-05-17T11:58:26.818Z,18.57
2023-05-17T12:00:57.848Z,18.55
2023-05-17T12:03:28.442Z,18.57
2023-05-17T12:06:06.839Z,18.57
2023-05-17T12:08:38.166Z,18.60
2023-05-17T12:11:10.961Z,18.61
2023-05-17T12:13:42.105Z,18.64
2023-05-17T12:16:15.974Z,18.67
2023-05-17T12:18:47.382Z,18.67
2023-05-17T12:21:18.510Z,18.67
2023-05-17T12:23:52.168Z,18.68
2023-05-17T12:26:22.693Z,18.70
2023-05-17T12:28:55.854Z,18.73
2023-05-17T12:31:28.133Z,18.76
2023-05-17T12:33:58.690Z,18.79
2023-05-17T12:36:28.977Z,18.82
2023-05-17T12:38:58.468Z,18.86
2023-05-17T12:41:28.235Z,18.92
2023-05-17T12:44:13.796Z,19.00
2023-05-17T12:46:44.673Z,19.09
2023-05-17T12:49:13.872Z,19.17
2023-05-17T12:51:44.196Z,19.24
2023-05-17T12:54:15.545Z,19.31
2023-05-17T12:56:44.918Z,19.38
2023-05-17T12:59:16.285Z,19.46
2023-05-17T13:01:46.969Z,19.54
2023-05-17T13:04:17.866Z,19.62
2023-05-17T13:06:48.620Z,19.69
2023-05-17T13:09:18.784Z,19.76
2023-05-17T13:11:52.641Z,19.81
2023-05-17T13:14:45.336Z,19.88
2023-05-17T13:17:20.368Z,19.97
2023-05-17T13:19:50.149Z,20.03
2023-05-17T13:22:19.408Z,20.10
2023-05-17T13:24:48.313Z,20.17
2023-05-17T13:27:17.437Z,20.22
2023-05-17T13:29:46.565Z,20.27
2023-05-17T13:32:15.818Z,20.33
2023-05-17T13:34:45.288Z,20.36
2023-05-17T13:37:14.483Z,20.41
2023-05-17T13:39:43.680Z,20.43
2023-05-17T13:42:13.795Z,20.45
2023-05-17T13:44:42.834Z,20.48
2023-05-17T13:47:11.915Z,20.50
2023-05-17T13:49:40.803Z,20.51
2023-05-17T13:52:12.168Z,20.51
2023-05-17T13:54:41.258Z,20.50
2023-05-17T13:57:10.770Z,20.49
2023-05-17T13:59:39.927Z,20.48
2023-05-17T14:02:09.896Z,20.48
2023-05-17T14:04:39.002Z,20.47
2023-05-17T14:07:08.175Z,20.45
2023-05-17T14:09:37.088Z,20.43
2023-05-17T14:12:07.202Z,20.41
2023-05-17T14:14:36.249Z,20.38
2023-05-17T14:17:05.677Z,20.35
2023-05-17T14:19:34.936Z,20.32
2023-05-17T14:22:04.232Z,20.30
2023-05-17T14:24:35.016Z,20.29
2023-05-17T14:27:06.314Z,20.27
2023-05-17T14:29:35.380Z,20.26
2023-05-17T14:32:06.036Z,20.25
2023-05-17T14:34:35.009Z,20.24
2023-05-17T14:37:04.408Z,20.25
2023-05-17T14:39:33.479Z,20.25
2023-05-17T14:42:02.389Z,20.24
2023-05-17T14:44:31.410Z,20.24
2023-05-17T14:47:00.600Z,20.25
2023-05-17T14:49:29.701Z,20.25
2023-05-17T14:51:58.767Z,20.24
2023-05-17T14:54:30.532Z,20.25
2023-05-17T14:57:00.070Z,20.24
2023-05-17T14:59:29.099Z,20.23
2023-05-17T15:01:58.094Z,20.22
2023-05-17T15:04:27.250Z,20.20
2023-05-17T15:06:57.071Z,20.19
2023-05-17T15:09:26.116Z,20.17
2023-05-17T15:11:55.488Z,20.16
2023-05-17T15:14:24.607Z,20.12
2023-05-17T15:16:53.762Z,20.10
2023-05-17T15:19:23.615Z,20.08
2023-05-17T15:21:52.608Z,20.07
2023-05-17T15:24:21.533Z,20.05
2023-05-17T15:26:50.753Z,20.04
2023-05-17T15:29:19.638Z,20.02
2023-05-17T15:31:48.901Z,20.00
2023-05-17T15:34:18.011Z,19.99
2023-05-17T15:36:48.061Z,19.97
2023-05-17T15:39:17.711Z,19.96
2023-05-17T15:41:46.885Z,19.95
2023-05-17T15:44:16.146Z,19.93
2023-05-17T15:46:45.409Z,19.92
2023-05-17T15:49:14.471Z,19.90
2023-05-17T15:51:43.711Z,19.89
2023-05-17T15:54:12.708Z,19.88
2023-05-17T15:56:41.537Z,19.88
2023-05-17T15:59:10.538Z,19.88
2023-05-17T16:01:41.844Z,19.88
2023-05-17T16:04:10.980Z,19.88
2023-05-17T16:06:40.699Z,19.87
2023-05-17T16:09:09.956Z,19.85
2023-05-17T16:11:38.968Z,19.84
2023-05-17T16:14:08.466Z,19.83
2023-05-17T16:16:37.425Z,19.81
2023-05-17T16:19:06.511Z,19.79
2023-05-17T16:21:35.760Z,19.78
2023-05-17T16:24:06.107Z,19.76
2023-05-17T16:26:37.840Z,19.75
2023-05-17T16:29:06.873Z,19.72
2023-05-17T16:31:35.979Z,19.72
2023-05-17T16:34:05.128Z,19.70
2023-05-17T16:36:34.144Z,19.69
2023-05-17T16:39:03.315Z,19.66
2023-05-17T16:41:33.563Z,19.64
2023-05-17T16:44:02.504Z,19.62
2023-05-17T16:46:32.364Z,19.61
2023-05-17T16:49:01.497Z,19.59
2023-05-17T16:51:30.859Z,19.57
2023-05-17T16:53:59.951Z,19.54
2023-05-17T16:56:28.970Z,19.54
2023-05-17T16:58:57.961Z,19.52
2023-05-17T17:01:27.252Z,19.52
2023-05-17T17:03:56.271Z,19.51
2023-05-17T17:06:25.292Z,19.49
2023-05-17T17:08:54.428Z,19.47
2023-05-17T17:11:23.550Z,19.46
2023-05-17T17:13:52.972Z,19.44
2023-05-17T17:16:22.112Z,19.42
2023-05-17T17:18:51.318Z,19.40
2023-05-17T17:21:20.332Z,19.38
2023-05-17T17:23:49.723Z,19.37
2023-05-17T17:26:18.632Z,19.34
2023-05-17T17:28:47.587Z,19.32
2023-05-17T17:31:17.730Z,19.30
2023-05-17T17:33:46.914Z,19.27
2023-05-17T17:36:15.848Z,19.25
2023-05-17T17:38:44.941Z,19.22
2023-05-17T17:41:13.941Z,19.20
2023-05-17T17:43:42.935Z,19.17
2023-05-17T17:46:11.836Z,19.15
2023-05-17T17:48:40.877Z,19.12
2023-05-17T17:51:09.882Z,19.09
2023-05-17T17:53:40.763Z,19.07
2023-05-17T17:56:09.794Z,19.05
2023-05-17T17:58:38.719Z,19.02
2023-05-17T18:01:07.780Z,19.00
2023-05-17T18:03:36.860Z,18.98
2023-05-17T18:06:06.545Z,18.95
2023-05-17T18:08:35.625Z,18.93
2023-05-17T18:11:04.898Z,18.91
2023-05-17T18:13:33.937Z,18.89
2023-05-17T18:16:02.824Z,18.88
2023-05-17T18:18:32.111Z,18.85
2023-05-17T18:21:01.107Z,18.83
2023-05-17T18:23:30.118Z,18.81
2023-05-17T18:25:59.030Z,18.80
2023-05-17T18:28:41.347Z,18.78
2023-05-17T18:31:11.325Z,18.76
2023-05-17T18:33:40.473Z,18.74
2023-05-17T18:36:09.824Z,18.73
2023-05-17T18:38:38.713Z,18.71
2023-05-17T18:41:07.544Z,18.70
2023-05-17T18:43:36.559Z,18.68
2023-05-17T18:46:05.591Z,18.66
2023-05-17T18:48:36.307Z,18.65
2023-05-17T18:51:06.361Z,18.63
2023-05-17T18:53:35.703Z,18.61
2023-05-17T18:56:05.761Z,18.60
2023-05-17T18:58:34.925Z,18.57
2023-05-17T19:01:03.991Z,18.55
2023-05-17T19:03:33.103Z,18.53
2023-05-17T19:06:01.993Z,18.51
2023-05-17T19:08:31.058Z,18.48
2023-05-17T19:11:03.075Z,18.45
2023-05-17T19:13:32.166Z,18.42
2023-05-17T19:16:02.498Z,18.41
2023-05-17T19:18:31.772Z,18.38
2023-05-17T19:21:00.861Z,18.37
2023-05-17T19:23:31.493Z,18.36
2023-05-17T19:26:00.738Z,18.33
2023-05-17T19:28:30.957Z,18.31
2023-05-17T19:31:00.215Z,18.29
2023-05-17T19:33:29.236Z,18.27
2023-05-17T19:35:58.673Z,18.24
2023-05-17T19:38:27.752Z,18.22
2023-05-17T19:40:56.636Z,18.20
2023-05-17T19:43:25.669Z,18.17
2023-05-17T19:45:54.854Z,18.15
2023-05-17T19:48:24.195Z,18.13
2023-05-17T19:50:54.958Z,18.11
2023-05-17T19:53:26.091Z,18.08
2023-05-17T19:55:55.969Z,18.05
2023-05-17T19:58:25.118Z,18.03
2023-05-17T20:00:54.061Z,18.03
2023-05-17T20:03:23.129Z,18.01
2023-05-17T20:05:52.680Z,18.00
2023-05-17T20:08:22.190Z,17.98
2023-05-17T20:10:51.005Z,17.96
2023-05-17T20:13:23.571Z,17.94
2023-05-17T20:15:52.594Z,17.93
2023-05-17T20:18:21.704Z,17.92
2023-05-17T20:20:53.566Z,17.91
2023-05-17T20:23:22.630Z,17.90
2023-05-17T20:25:51.660Z,17.90
2023-05-17T20:28:20.622Z,17.87
2023-05-17T20:30:49.768Z,17.87
2023-05-17T20:33:21.487Z,17.84
2023-05-17T20:35:50.819Z,17.82
2023-05-17T20:38:20.034Z,17.80
2023-05-17T20:40:51.072Z,17.78
2023-05-17T20:43:20.008Z,17.77
2023-05-17T20:45:49.194Z,17.76
2023-05-17T20:48:18.163Z,17.74
2023-05-17T20:50:48.499Z,17.71
2023-05-17T20:53:17.576Z,17.71
2023-05-17T20:55:46.692Z,17.69
2023-05-17T20:58:16.094Z,17.68
2023-05-17T21:00:45.150Z,17.65
2023-05-17T21:03:14.214Z,17.63
2023-05-17T21:05:43.413Z,17.61
2023-05-17T21:08:12.734Z,17.59
2023-05-17T21:10:45.638Z,17.56
2023-05-17T21:13:14.620Z,17.52
2023-05-17T21:15:43.803Z,17.47
2023-05-17T21:18:12.975Z,17.40
2023-05-17T21:20:41.928Z,17.33
2023-05-17T21:23:10.913Z,17.24
2023-05-17T21:25:40.102Z,17.17
2023-05-17T21:28:09.170Z,17.10
2023-05-17T21:30:38.121Z,17.03
2023-05-17T21:33:07.047Z,16.99
2023-05-17T21:35:35.926Z,16.96
2023-05-17T21:38:04.884Z,16.93
2023-05-17T21:40:34.065Z,16.90
2023-05-17T21:43:04.347Z,16.87
2023-05-17T21:45:33.427Z,16.86
2023-05-17T21:48:03.179Z,16.84
2023-05-17T21:50:32.442Z,16.81
2023-05-17T21:53:02.326Z,16.78
2023-05-17T21:55:36.378Z,16.75
2023-05-17T21:58:15.950Z,16.74
2023-05-17T22:00:44.875Z,16.74
2023-05-17T22:03:14.077Z,16.74
2023-05-17T22:05:43.116Z,16.72
2023-05-17T22:08:12.306Z,16.69
2023-05-17T22:10:41.573Z,16.66
2023-05-17T22:13:11.666Z,16.62
2023-05-17T22:15:40.907Z,16.59
2023-05-17T22:18:11.670Z,16.58
2023-05-17T22:20:40.934Z,16.56
2023-05-17T22:23:09.924Z,16.54
2023-05-17T22:25:38.903Z,16.51
2023-05-17T22:28:07.854Z,16.48
2023-05-17T22:30:36.799Z,16.46
2023-05-17T22:33:05.781Z,16.43
2023-05-17T22:35:35.676Z,16.40
2023-05-17T22:38:04.739Z,16.40
2023-05-17T22:40:33.719Z,16.39
2023-05-17T22:43:02.764Z,16.38
2023-05-17T22:45:32.364Z,16.35
2023-05-17T22:48:03.280Z,16.34
2023-05-17T22:50:32.347Z,16.29
2023-05-17T22:53:01.644Z,16.31
2023-05-17T22:55:30.891Z,16.31
2023-05-17T22:58:00.460Z,16.29
2023-05-17T23:00:29.394Z,16.30
2023-05-17T23:02:58.533Z,16.31
2023-05-17T23:05:27.576Z,16.32
2023-05-17T23:07:56.749Z,16.33
2023-05-17T23:10:25.882Z,16.32
2023-05-17T23:12:57.670Z,16.35
2023-05-17T23:15:27.843Z,16.37
2023-05-17T23:17:58.925Z,16.38
2023-05-17T23:20:28.149Z,16.40
2023-05-17T23:22:59.067Z,16.41
2023-05-17T23:25:28.692Z,16.44
2023-05-17T23:27:57.914Z,16.44
2023-05-17T23:30:27.403Z,16.44
2023-05-17T23:32:56.317Z,16.46
2023-05-17T23:35:25.835Z,16.47
2023-05-17T23:37:54.857Z,16.47
2023-05-17T23:40:23.876Z,16.46
2023-05-17T23:42:52.903Z,16.47
2023-05-17T23:45:22.139Z,16.47
2023-05-17T23:47:51.113Z,16.45
2023-05-17T23:50:20.129Z,16.43
2023-05-17T23:52:49.208Z,16.41
2023-05-17T23:55:18.567Z,16.42
2023-05-17T23:57:48.115Z,16.42
